createdAt,value
2019-01-23T00:00:10.567Z,-1.50
2019-01-23T00:05:20.112Z,-1.40
2019-01-23T00:10:23.522Z,-1.30
2019-01-23T00:15:26.925Z,-1.40
2019-01-23T00:20:30.337Z,-1.30
2019-01-23T00:25:33.753Z,-1.40
2019-01-23T00:30:37.181Z,-1.50
2019-01-23T00:35:40.702Z,-1.20
2019-01-23T00:40:44.107Z,-1.40
2019-01-23T00:45:47.519Z,-1.50
2019-01-23T00:50:51.044Z,-1.40
2019-01-23T00:55:54.554Z,-1.30
2019-01-23T01:00:57.869Z,-1.20
2019-01-23T01:06:02.490Z,-1.20
2019-01-23T01:11:05.812Z,-1.30
2019-01-23T01:16:12.364Z,-1.30
2019-01-23T01:21:23.234Z,-1.30
2019-01-23T01:26:26.712Z,-1.50
2019-01-23T01:31:33.383Z,-1.50
2019-01-23T01:36:36.856Z,-1.30
2019-01-23T01:41:40.341Z,-1.30
2019-01-23T01:46:51.316Z,-1.50
2019-01-23T01:51:54.934Z,-1.70
2019-01-23T01:57:01.306Z,-1.90
2019-01-23T02:02:04.726Z,-1.90
2019-01-23T02:07:07.912Z,-2.00
2019-01-23T02:12:11.334Z,-2.00
2019-01-23T02:17:16.442Z,-2.30
2019-01-23T02:22:20.017Z,-2.20
2019-01-23T02:27:23.533Z,-2.00
2019-01-23T02:32:27.150Z,-2.10
2019-01-23T02:37:32.132Z,-1.90
2019-01-23T02:42:34.998Z,-2.10
2019-01-23T02:47:38.357Z,-2.40
2019-01-23T02:52:41.828Z,-2.30
2019-01-23T02:57:45.229Z,-2.20
2019-01-23T03:02:51.690Z,-2.20
2019-01-23T03:07:55.135Z,-2.50
2019-01-23T03:13:04.733Z,-2.10
2019-01-23T03:18:08.310Z,-2.40
2019-01-23T03:23:11.720Z,-2.60
2019-01-23T03:28:15.311Z,-2.70
2019-01-23T03:33:18.920Z,-2.80
2019-01-23T03:38:22.341Z,-2.90
2019-01-23T03:43:26.404Z,-2.90
2019-01-23T03:48:32.581Z,-2.60
2019-01-23T03:53:36.097Z,-2.60
2019-01-23T03:58:40.535Z,-2.50
2019-01-23T04:04:01.461Z,-2.50
2019-01-23T04:09:08.292Z,-2.40
2019-01-23T04:14:16.678Z,-2.30
2019-01-23T04:19:22.244Z,-2.30
2019-01-23T04:24:26.673Z,-2.30
2019-01-23T04:29:31.007Z,-2.30
2019-01-23T04:34:35.337Z,-2.30
2019-01-23T04:39:38.752Z,-2.90
2019-01-23T04:44:46.754Z,-3.20
2019-01-23T04:49:52.910Z,-2.60
2019-01-23T04:54:56.101Z,-3.10
2019-01-23T04:59:58.982Z,-3.40
2019-01-23T05:05:06.581Z,-2.80
2019-01-23T05:10:09.565Z,-3.00
2019-01-23T05:15:13.083Z,-2.70
2019-01-23T05:20:16.838Z,-2.80
2019-01-23T05:25:23.194Z,-3.00
2019-01-23T05:30:29.582Z,-3.00
2019-01-23T05:35:40.223Z,-3.30
2019-01-23T05:40:46.842Z,-2.70
2019-01-23T05:45:50.410Z,-3.00
2019-01-23T05:50:56.486Z,-2.50
2019-01-23T05:55:59.975Z,-2.70
2019-01-23T06:01:03.595Z,-2.80
2019-01-23T06:06:07.179Z,-2.60
2019-01-23T06:11:10.551Z,-2.70
2019-01-23T06:16:13.905Z,-2.90
2019-01-23T06:21:17.455Z,-3.00
2019-01-23T06:26:20.990Z,-2.90
2019-01-23T06:31:24.389Z,-3.50
2019-01-23T06:36:27.757Z,-3.30
2019-01-23T06:41:33.525Z,-3.00
2019-01-23T06:46:39.807Z,-3.40
2019-01-23T06:51:44.477Z,-3.30
2019-01-23T06:56:47.367Z,-3.10
2019-01-23T07:01:50.729Z,-3.10
2019-01-23T07:06:54.214Z,-3.00
2019-01-23T07:12:02.162Z,-2.80
2019-01-23T07:17:11.486Z,-3.00
2019-01-23T07:22:15.061Z,-3.00
2019-01-23T07:27:18.370Z,-3.00
2019-01-23T07:32:21.988Z,-2.70
2019-01-23T07:37:25.507Z,-2.60
2019-01-23T07:42:34.529Z,-2.60
2019-01-23T07:47:37.890Z,-2.70
2019-01-23T07:52:42.828Z,-2.70
2019-01-23T07:57:46.349Z,-2.70
2019-01-23T08:02:49.701Z,-2.80
2019-01-23T08:07:53.212Z,-2.90
2019-01-23T08:12:56.506Z,-2.80
2019-01-23T08:18:07.758Z,-2.50
2019-01-23T08:23:11.376Z,-2.30
2019-01-23T08:28:17.861Z,-2.30
2019-01-23T08:33:21.376Z,-2.50
2019-01-23T08:38:25.940Z,-2.40
2019-01-23T08:43:29.529Z,-2.30
2019-01-23T08:48:32.815Z,-2.00
2019-01-23T08:53:36.359Z,-2.20
2019-01-23T08:58:42.956Z,-2.10
2019-01-23T09:03:52.302Z,-2.20
2019-01-23T09:09:02.168Z,-2.50
2019-01-23T09:14:05.993Z,-1.90
2019-01-23T09:19:15.654Z,-1.80
2019-01-23T09:24:21.996Z,-2.20
2019-01-23T09:29:24.879Z,-1.90
2019-01-23T09:35:20.974Z,-1.70
2019-01-23T09:40:33.606Z,-1.70
2019-01-23T09:46:15.315Z,-1.80
2019-01-23T09:52:20.112Z,-1.80
2019-01-23T09:57:25.020Z,-2.00
2019-01-23T10:02:28.425Z,-1.70
2019-01-23T10:07:31.685Z,-2.10
2019-01-23T10:12:38.071Z,-2.00
2019-01-23T10:17:46.203Z,-1.80
2019-01-23T10:22:49.612Z,-1.60
2019-01-23T10:27:52.999Z,-1.50
2019-01-23T10:32:59.205Z,-1.50
2019-01-23T10:38:02.757Z,-1.80
2019-01-23T10:43:06.375Z,-1.90
2019-01-23T10:48:09.739Z,-1.70
2019-01-23T10:53:13.202Z,-1.70
2019-01-23T10:58:16.819Z,-1.70
2019-01-23T11:03:20.168Z,-1.90
2019-01-23T11:08:23.644Z,-1.70
2019-01-23T11:13:28.738Z,-1.90
2019-01-23T11:18:36.921Z,-1.70
2019-01-23T11:23:42.410Z,-1.80
2019-01-23T11:28:45.777Z,-1.80
2019-01-23T11:33:49.052Z,-1.60
2019-01-23T11:38:52.646Z,-1.40
2019-01-23T11:43:56.168Z,-1.50
2019-01-23T11:49:01.085Z,-1.40
2019-01-23T11:54:04.767Z,-1.30
2019-01-23T11:59:08.158Z,-1.20
2019-01-23T12:04:11.582Z,-1.20
2019-01-23T12:09:14.907Z,-1.00
2019-01-23T12:14:21.267Z,-0.90
2019-01-23T12:19:46.645Z,-0.50
2019-01-23T12:24:49.952Z,-0.40
2019-01-23T12:29:53.241Z,-0.30
2019-01-23T12:34:58.211Z,-0.40
2019-01-23T12:40:02.047Z,-0.50
2019-01-23T12:45:08.629Z,-0.70
2019-01-23T12:50:14.271Z,-0.60
2019-01-23T12:55:17.815Z,-0.50
2019-01-23T13:00:23.527Z,-0.30
2019-01-23T13:05:29.863Z,-0.10
2019-01-23T13:10:35.199Z,0.30
2019-01-23T13:15:41.703Z,0.40
2019-01-23T13:20:45.099Z,0.40
2019-01-23T13:25:48.766Z,0.60
2019-01-23T13:30:55.011Z,0.50
2019-01-23T13:35:58.628Z,0.70
2019-01-23T13:41:02.449Z,0.80
2019-01-23T13:46:05.920Z,0.80
2019-01-23T13:51:14.802Z,0.80
2019-01-23T13:56:19.677Z,0.70
2019-01-23T14:01:23.076Z,0.60
2019-01-23T14:06:26.535Z,0.40
2019-01-23T14:11:30.197Z,0.70
2019-01-23T14:16:33.715Z,0.60
2019-01-23T14:21:39.556Z,0.50
2019-01-23T14:26:47.842Z,0.40
2019-01-23T14:31:51.280Z,0.30
2019-01-23T14:36:54.846Z,0.20
2019-01-23T14:41:58.441Z,0.10
2019-01-23T14:47:02.073Z,0.00
2019-01-23T14:52:06.982Z,-0.10
2019-01-23T14:57:10.433Z,-0.10
2019-01-23T15:02:15.233Z,-0.30
2019-01-23T15:07:24.532Z,-0.30
2019-01-23T15:12:34.051Z,-0.40
2019-01-23T15:17:39.446Z,-0.60
2019-01-23T15:22:42.964Z,-0.80
2019-01-23T15:27:46.295Z,-0.70
2019-01-23T15:32:49.523Z,-0.90
2019-01-23T15:37:54.075Z,-0.90
2019-01-23T15:42:59.171Z,-1.10
2019-01-23T15:48:04.464Z,-1.20
2019-01-23T15:53:07.972Z,-1.40
2019-01-23T15:58:11.456Z,-1.60
2019-01-23T16:03:14.725Z,-1.60
2019-01-23T16:08:18.023Z,-1.50
2019-01-23T16:13:21.325Z,-1.60
2019-01-23T16:18:31.151Z,-1.70
2019-01-23T16:23:34.642Z,-1.80
2019-01-23T16:28:38.080Z,-1.90
2019-01-23T16:33:41.374Z,-1.90
2019-01-23T16:38:53.993Z,-2.00
2019-01-23T16:43:57.428Z,-1.90
2019-01-23T16:49:04.019Z,-1.90
2019-01-23T16:54:07.459Z,-2.00
2019-01-23T16:59:10.807Z,-2.10
2019-01-23T17:04:17.188Z,-2.20
2019-01-23T17:09:23.354Z,-2.30
2019-01-23T17:14:26.921Z,-2.30
2019-01-23T17:19:36.310Z,-2.50
2019-01-23T17:24:39.885Z,-2.60
2019-01-23T17:29:45.846Z,-2.70
2019-01-23T17:34:49.248Z,-2.80
2019-01-23T17:39:52.731Z,-2.90
2019-01-23T17:44:56.220Z,-2.90
2019-01-23T17:50:04.259Z,-3.10
2019-01-23T17:55:12.697Z,-3.00
2019-01-23T18:00:20.817Z,-2.80
2019-01-23T18:05:24.031Z,-2.50
2019-01-23T18:10:27.556Z,-2.60
2019-01-23T18:15:31.159Z,-2.60
2019-01-23T18:20:34.532Z,-2.40
2019-01-23T18:25:39.556Z,-2.50
2019-01-23T18:31:25.365Z,-2.60
2019-01-23T18:37:19.382Z,-2.80
2019-01-23T18:43:23.419Z,-2.70
2019-01-23T18:48:56.153Z,-2.70
2019-01-23T18:54:07.209Z,-3.00
2019-01-23T18:59:13.607Z,-2.90
2019-01-23T19:04:16.995Z,-3.00
2019-01-23T19:09:19.828Z,-2.90
2019-01-23T19:14:25.617Z,-2.80
2019-01-23T19:19:29.190Z,-2.70
2019-01-23T19:24:34.207Z,-2.80
2019-01-23T19:29:40.831Z,-2.80
2019-01-23T19:34:44.760Z,-2.80
2019-01-23T19:39:48.585Z,-2.80
2019-01-23T19:44:52.028Z,-2.90
2019-01-23T19:49:55.447Z,-2.80
2019-01-23T19:54:58.721Z,-2.80
2019-01-23T20:00:08.576Z,-2.90
2019-01-23T20:05:14.003Z,-2.90
2019-01-23T20:10:18.524Z,-3.10
2019-01-23T20:15:26.206Z,-3.10
2019-01-23T20:20:31.238Z,-3.00
2019-01-23T20:25:34.686Z,-3.10
2019-01-23T20:30:42.945Z,-3.30
2019-01-23T20:35:46.275Z,-3.30
2019-01-23T20:40:49.803Z,-3.40
2019-01-23T20:45:54.038Z,-3.10
2019-01-23T20:50:57.963Z,-3.20
2019-01-23T20:56:06.904Z,-3.40
2019-01-23T21:01:10.937Z,-3.20
2019-01-23T21:06:28.888Z,-3.30
2019-01-23T21:11:32.608Z,-3.30
2019-01-23T21:16:36.635Z,-3.30
2019-01-23T21:21:46.904Z,-3.40
2019-01-23T21:26:50.832Z,-3.30
2019-01-23T21:32:01.651Z,-3.30
2019-01-23T21:37:02.915Z,-3.30
2019-01-23T21:42:09.872Z,-3.90
2019-01-23T21:47:14.623Z,-3.80
2019-01-23T21:52:18.245Z,-3.70
2019-01-23T21:57:21.498Z,-4.40
2019-01-23T22:02:24.788Z,-4.10
2019-01-23T22:07:31.340Z,-4.20
2019-01-23T22:12:34.775Z,-4.30
2019-01-23T22:17:38.196Z,-4.50
2019-01-23T22:22:50.694Z,-4.70
2019-01-23T22:27:53.856Z,-4.00
2019-01-23T22:32:57.271Z,-3.80
2019-01-23T22:38:14.445Z,-4.20
2019-01-23T22:43:17.861Z,-3.70
2019-01-23T22:48:21.370Z,-3.60
2019-01-23T22:53:24.611Z,-3.60
2019-01-23T22:58:31.063Z,-3.80
2019-01-23T23:03:34.311Z,-4.10
2019-01-23T23:08:40.790Z,-3.90
2019-01-23T23:13:44.201Z,-4.10
2019-01-23T23:18:47.587Z,-4.30
2019-01-23T23:23:51.207Z,-4.40
2019-01-23T23:28:54.820Z,-3.90
2019-01-23T23:33:58.339Z,-3.80
2019-01-23T23:39:02.711Z,-4.10
2019-01-23T23:44:06.053Z,-4.40
2019-01-23T23:49:09.440Z,-4.10
2019-01-23T23:54:15.775Z,-4.00
2019-01-23T23:59:22.533Z,-4.30
